Flight Track Log - Related Links

Times and Time Zones

All times are in EDT time to prevent confusion due to time zone crossing. See the SKW4664 flight status page for this flight to view local times or setup timezone preferences in your user account.

Time Position Orientation Groundspeed Altitude Reporting Facility
EDT Latitude Longitude Course Direction KTS MPH feet Rate Location/Type
Fri 10:41:06 AM 44.8994 -93.2375 235° Southwest 149 171 2,400  Level FAA TRACON SMA TRACON (SMA)
Fri 10:41:29 AM 44.9000 -93.2567 272° West 162 186 2,900 1,953 Climbing FAA TRACON SMA TRACON (SMA)
Fri 10:41:49 AM 44.8939 -93.2858 254° West 195 224 3,800 2,108 Climbing FAA TRACON SMA TRACON (SMA)
Fri 10:42:06 AM 44.8883 -93.3125 254° West 222 255 4,200 2,108 Climbing FAA TRACON SMA TRACON (SMA)
Fri 10:42:26 AM 44.8839 -93.3422 258° West 246 283 5,100 2,850 Climbing FAA TRACON SMA TRACON (SMA)
Fri 10:42:46 AM 44.8792 -93.3725 258° West 254 292 6,100 2,550 Climbing FAA TRACON SMA TRACON (SMA)
Fri 10:43:00 AM 44.7067 -93.5880 232° Southwest  Level FlightAware Approximate
Fri 10:43:06 AM 44.8719 -93.4106 255° West 262 302 6,800  Level FAA TRACON SMA TRACON (SMA)
Fri 10:43:26 AM 44.8567 -93.4381 232° Southwest 289 333 6,900 150 Climbing FAA TRACON SMA TRACON (SMA)
Fri 10:43:46 AM 44.8369 -93.4617 220° Southwest 300 345 6,900  Level FAA TRACON SMA TRACON (SMA)
Fri 10:44:00 AM 44.6433 -93.7135 235° Southwest  Level FlightAware Approximate
Fri 10:44:06 AM 44.8128 -93.4908 221° Southwest 299 344 6,900  Level FAA TRACON SMA TRACON (SMA)
Fri 10:44:26 AM 44.7936 -93.5150 222° Southwest 301 346 7,400 2,850 Climbing FAA TRACON SMA TRACON (SMA)
Fri 10:44:46 AM 44.7769 -93.5414 228° Southwest 295 339 8,800 3,659 Climbing FAA TRACON SMA TRACON (SMA)
Fri 10:45:00 AM 44.5791 -93.8376 215° Southwest  Level FlightAware Approximate
Fri 10:45:07 AM 44.7561 -93.5736 228° Southwest 290 334 9,900  Level FAA TRACON SMA TRACON (SMA)
Fri 10:45:27 AM 44.7392 -93.6000 228° Southwest 293 337 10,800 2,250 Climbing FAA TRACON SMA TRACON (SMA)
Fri 10:45:47 AM 44.7175 -93.6344 228° Southwest 303 349 11,400 1,800 Climbing FAA TRACON SMA TRACON (SMA)
Fri 10:46:00 AM 44.5072 -93.9523 235° Southwest  Level FlightAware Approximate
Fri 10:46:07 AM 44.7000 -93.6633 230° Southwest 314 361 12,000  Level FAA TRACON SMA TRACON (SMA)
Fri 10:46:26 AM 44.6806 -93.6925 227° Southwest 326 375 12,400 1,077 Climbing FAA TRACON SMA TRACON (SMA)
Fri 10:46:46 AM 44.6608 -93.7231 228° Southwest 340 391 12,700 977 Climbing FAA TRACON SMA TRACON (SMA)
Fri 10:47:09 AM 44.6417 -93.7678 239° Southwest 350 403 13,100 1,953 Climbing FAA TRACON SMA TRACON (SMA)
Fri 10:47:29 AM 44.6250 -93.8150 244° Southwest 351 404 14,100 2,270 Climbing FAA TRACON SMA TRACON (SMA)
Fri 10:47:46 AM 44.6158 -93.8436 246° West 350 403 14,500 2,108 Climbing FAA TRACON SMA TRACON (SMA)
Fri 10:48:06 AM 44.6000 -93.8922 245° Southwest 352 405 15,400 2,100 Climbing FAA TRACON SMA TRACON (SMA)
Fri 10:48:26 AM 44.5867 -93.9297 243° Southwest 351 404 15,900 2,100 Climbing FAA TRACON SMA TRACON (SMA)
Fri 10:48:46 AM 44.5742 -93.9689 246° West 354 407 16,800 3,600 Climbing FAA TRACON SMA TRACON (SMA)
Fri 10:49:06 AM 44.5589 -94.0150 245° Southwest 342 394 18,300 2,850 Climbing FAA TRACON SMA TRACON (SMA)
Fri 10:49:26 AM 44.5467 -94.0528 246° West 342 394 18,700 1,500 Climbing FAA TRACON SMA TRACON (SMA)
Fri 10:49:46 AM 44.5342 -94.0908 245° Southwest 347 399 19,300 1,950 Climbing FAA TRACON SMA TRACON (SMA)
Fri 10:50:06 AM 44.5178 -94.1375 244° Southwest 348 400 20,000 1,902 Climbing FAA TRACON SMA TRACON (SMA)
Fri 10:50:27 AM 44.5047 -94.1756 244° Southwest 350 403 20,600 1,756 Climbing FAA TRACON SMA TRACON (SMA)
Fri 10:50:47 AM 44.4922 -94.2133 245° Southwest 348 400 21,200 1,650 Climbing FAA TRACON SMA TRACON (SMA)
Fri 10:51:07 AM 44.4767 -94.2619 246° West 352 405 21,700 1,200 Climbing FAA TRACON SMA TRACON (SMA)
Fri 10:51:27 AM 44.4644 -94.3006 246° West 355 409 22,000 450 Climbing FAA TRACON SMA TRACON (SMA)
Fri 10:51:47 AM 44.4494 -94.3381 241° Southwest 357 411 22,000  Level FAA TRACON SMA TRACON (SMA)
Fri 10:52:07 AM 44.4344 -94.3878 247° West 359 413 22,000  Level FAA TRACON SMA TRACON (SMA)
Fri 10:52:22 AM 44.4286 -94.3881 182° South 357 411 22,000  Level Minneapolis Center
Fri 10:53:23 AM 44.3769 -94.5397 245° Southwest 360 414 22,000  Level Minneapolis Center
Fri 10:54:25 AM 44.3333 -94.6675 245° Southwest 363 418 22,000  Level Minneapolis Center
Fri 10:55:27 AM 44.2883 -94.7925 243° Southwest 364 419 22,000  Level Minneapolis Center
Fri 10:56:29 AM 44.2461 -94.9172 245° Southwest 360 414 22,000  Level Minneapolis Center
Fri 10:57:31 AM 44.2025 -95.0394 244° Southwest 357 411 22,000  Level Minneapolis Center
Fri 10:58:33 AM 44.1589 -95.1628 244° Southwest 355 409 22,000  Level Minneapolis Center
Fri 10:59:35 AM 44.1064 -95.3089 243° Southwest 355 409 22,000  Level Minneapolis Center
Fri 11:00:37 AM 44.0633 -95.4311 244° Southwest 354 407 22,000  Level Minneapolis Center
Fri 11:01:38 AM 44.0183 -95.5536 243° Southwest 355 409 22,000 -146 Level Minneapolis Center
Fri 11:02:40 AM 43.9744 -95.6783 244° Southwest 359 413 21,700 -1,500 Descending Minneapolis Center
Fri 11:03:42 AM 43.9269 -95.8069 243° Southwest 370 426 18,900 -2,758 Descending Minneapolis Center
Fri 11:04:44 AM 43.8797 -95.9381 243° Southwest 380 437 16,000 -3,048 Descending Minneapolis Center
Fri 11:05:46 AM 43.8331 -96.0897 247° West 368 423 12,600 -1,902 Descending Minneapolis Center
Fri 11:06:47 AM 43.7956 -96.2108 247° West 365 420 12,100 -492 Descending Minneapolis Center
Fri 11:08:00 AM 43.7152 -96.3440 248° West  Level FlightAware Approximate
Fri 11:15:00 AM 43.5667 -96.7333 235° Southwest  Level FlightAware Approximate
Fri 11:16:00 AM 43.5820 -96.7419 235° Southwest  Level Estimated
Fri 11:17:00 AM 43.5820 -96.7419 235° Southwest  Level Estimated
Fri 11:18:00 AM 43.5820 -96.7419 235° Southwest  Level Estimated

Login

Don't have an account? Register now (free) for customized features, flight alerts, and more!